sensor_id;sensor_type;location;lat;lon;timestamp;pressure;altitude;pressure_sealevel;temperature;humidity
69848;BME280;57143;55.940;37.496;2023-06-10T00:00:53;97409.91;;;10.22;100.00
69848;BME280;57143;55.940;37.496;2023-06-10T00:03:21;97392.84;;;10.26;100.00
69848;BME280;57143;55.940;37.496;2023-06-10T00:05:49;97410.44;;;10.24;100.00
69848;BME280;57143;55.940;37.496;2023-06-10T00:08:16;97408.00;;;10.22;100.00
69848;BME280;57143;55.940;37.496;2023-06-10T00:10:45;97411.28;;;10.14;100.00
69848;BME280;57143;55.940;37.496;2023-06-10T00:13:13;97407.75;;;10.09;100.00
69848;BME280;57143;55.940;37.496;2023-06-10T00:15:42;97417.72;;;10.03;100.00
69848;BME280;57143;55.940;37.496;2023-06-10T00:18:09;97420.97;;;10.00;100.00
69848;BME280;57143;55.940;37.496;2023-06-10T00:20:37;97423.41;;;9.97;100.00
69848;BME280;57143;55.940;37.496;2023-06-10T00:23:04;97429.59;;;9.92;100.00
69848;BME280;57143;55.940;37.496;2023-06-10T00:25:34;97437.19;;;9.95;100.00
69848;BME280;57143;55.940;37.496;2023-06-10T00:28:01;97436.09;;;9.96;100.00
69848;BME280;57143;55.940;37.496;2023-06-10T00:30:30;97448.84;;;10.01;100.00
69848;BME280;57143;55.940;37.496;2023-06-10T00:32:57;97445.03;;;9.92;100.00
69848;BME280;57143;55.940;37.496;2023-06-10T00:35:25;97453.94;;;9.92;100.00
69848;BME280;57143;55.940;37.496;2023-06-10T00:37:52;97470.47;;;9.96;100.00
69848;BME280;57143;55.940;37.496;2023-06-10T00:40:20;97482.66;;;9.93;100.00
69848;BME280;57143;55.940;37.496;2023-06-10T00:42:47;97505.06;;;9.89;100.00
69848;BME280;57143;55.940;37.496;2023-06-10T00:45:14;97522.94;;;9.85;100.00
69848;BME280;57143;55.940;37.496;2023-06-10T00:47:43;97594.06;;;9.80;100.00
69848;BME280;57143;55.940;37.496;2023-06-10T00:50:10;97601.09;;;9.76;100.00
69848;BME280;57143;55.940;37.496;2023-06-10T00:52:38;97631.63;;;9.72;100.00
69848;BME280;57143;55.940;37.496;2023-06-10T00:55:06;97633.25;;;9.73;100.00
69848;BME280;57143;55.940;37.496;2023-06-10T00:57:33;97646.25;;;9.76;100.00
69848;BME280;57143;55.940;37.496;2023-06-10T01:00:00;97650.34;;;9.78;100.00
69848;BME280;57143;55.940;37.496;2023-06-10T01:02:33;97664.34;;;9.70;100.00
69848;BME280;57143;55.940;37.496;2023-06-10T01:05:02;97695.47;;;9.73;100.00
69848;BME280;57143;55.940;37.496;2023-06-10T01:07:33;97711.63;;;9.58;100.00
69848;BME280;57143;55.940;37.496;2023-06-10T01:10:05;97704.56;;;9.98;100.00
69848;BME280;57143;55.940;37.496;2023-06-10T01:12:43;97703.13;;;10.32;100.00
69848;BME280;57143;55.940;37.496;2023-06-10T01:15:14;97718.84;;;10.35;100.00
69848;BME280;57143;55.940;37.496;2023-06-10T01:17:54;97733.38;;;10.76;100.00
69848;BME280;57143;55.940;37.496;2023-06-10T01:20:24;97757.75;;;10.76;100.00
69848;BME280;57143;55.940;37.496;2023-06-10T01:22:54;97767.88;;;10.96;100.00
69848;BME280;57143;55.940;37.496;2023-06-10T01:25:24;97809.88;;;11.03;100.00
69848;BME280;57143;55.940;37.496;2023-06-10T01:28:02;97817.69;;;10.85;100.00
69848;BME280;57143;55.940;37.496;2023-06-10T01:30:38;97843.03;;;10.64;100.00
69848;BME280;57143;55.940;37.496;2023-06-10T01:33:09;97863.50;;;10.91;100.00
69848;BME280;57143;55.940;37.496;2023-06-10T01:35:37;97840.72;;;11.69;100.00
69848;BME280;57143;55.940;37.496;2023-06-10T01:38:07;97866.41;;;11.51;100.00
69848;BME280;57143;55.940;37.496;2023-06-10T01:40:35;97846.69;;;11.96;100.00
69848;BME280;57143;55.940;37.496;2023-06-10T01:43:03;97885.81;;;12.20;100.00
69848;BME280;57143;55.940;37.496;2023-06-10T01:45:30;97884.69;;;12.51;100.00
69848;BME280;57143;55.940;37.496;2023-06-10T01:47:57;97906.69;;;12.55;100.00
69848;BME280;57143;55.940;37.496;2023-06-10T01:50:25;97927.56;;;12.90;100.00
69848;BME280;57143;55.940;37.496;2023-06-10T01:52:52;97932.53;;;12.17;100.00
69848;BME280;57143;55.940;37.496;2023-06-10T01:55:20;97935.22;;;12.72;100.00
69848;BME280;57143;55.940;37.496;2023-06-10T01:57:47;97961.34;;;12.43;100.00
69848;BME280;57143;55.940;37.496;2023-06-10T02:00:15;97916.25;;;12.42;100.00
69848;BME280;57143;55.940;37.496;2023-06-10T02:02:43;97912.22;;;13.39;100.00
69848;BME280;57143;55.940;37.496;2023-06-10T02:05:10;97959.69;;;12.72;100.00
69848;BME280;57143;55.940;37.496;2023-06-10T02:07:37;97949.63;;;12.83;100.00
69848;BME280;57143;55.940;37.496;2023-06-10T02:10:05;97937.06;;;13.17;100.00
69848;BME280;57143;55.940;37.496;2023-06-10T02:12:35;97918.44;;;14.37;100.00
69848;BME280;57143;55.940;37.496;2023-06-10T02:15:02;98004.34;;;14.24;100.00
69848;BME280;57143;55.940;37.496;2023-06-10T02:17:31;98012.94;;;14.85;100.00
69848;BME280;57143;55.940;37.496;2023-06-10T02:20:19;98050.81;;;14.53;100.00
69848;BME280;57143;55.940;37.496;2023-06-10T02:22:46;98082.22;;;13.76;100.00
69848;BME280;57143;55.940;37.496;2023-06-10T02:25:13;98027.47;;;15.33;100.00
69848;BME280;57143;55.940;37.496;2023-06-10T02:27:42;98071.38;;;15.07;100.00
69848;BME280;57143;55.940;37.496;2023-06-10T02:30:10;98065.81;;;15.98;100.00
69848;BME280;57143;55.940;37.496;2023-06-10T02:32:38;98128.03;;;15.21;100.00
69848;BME280;57143;55.940;37.496;2023-06-10T02:35:07;98108.69;;;15.51;100.00
69848;BME280;57143;55.940;37.496;2023-06-10T02:37:38;98100.22;;;15.52;100.00
69848;BME280;57143;55.940;37.496;2023-06-10T02:40:06;98112.03;;;15.09;100.00
69848;BME280;57143;55.940;37.496;2023-06-10T02:42:34;98102.47;;;15.97;100.00
69848;BME280;57143;55.940;37.496;2023-06-10T02:45:03;98165.75;;;15.81;100.00
69848;BME280;57143;55.940;37.496;2023-06-10T02:47:31;98152.63;;;15.54;100.00
69848;BME280;57143;55.940;37.496;2023-06-10T02:49:58;98140.38;;;15.80;100.00
69848;BME280;57143;55.940;37.496;2023-06-10T02:52:25;98198.22;;;15.87;100.00
69848;BME280;57143;55.940;37.496;2023-06-10T02:54:52;98178.44;;;16.48;100.00
69848;BME280;57143;55.940;37.496;2023-06-10T02:57:19;98187.94;;;15.74;100.00
69848;BME280;57143;55.940;37.496;2023-06-10T02:59:47;98194.66;;;16.63;100.00
69848;BME280;57143;55.940;37.496;2023-06-10T03:02:16;98206.59;;;16.72;100.00
69848;BME280;57143;55.940;37.496;2023-06-10T03:04:43;98228.47;;;15.96;100.00
69848;BME280;57143;55.940;37.496;2023-06-10T03:07:10;98183.50;;;16.59;100.00
69848;BME280;57143;55.940;37.496;2023-06-10T03:09:38;98190.84;;;17.38;100.00
69848;BME280;57143;55.940;37.496;2023-06-10T03:12:06;98285.94;;;16.72;100.00
69848;BME280;57143;55.940;37.496;2023-06-10T03:14:34;98296.13;;;17.32;100.00
69848;BME280;57143;55.940;37.496;2023-06-10T03:17:01;98310.47;;;18.30;100.00
69848;BME280;57143;55.940;37.496;2023-06-10T03:19:30;98364.69;;;19.25;100.00
69848;BME280;57143;55.940;37.496;2023-06-10T03:22:07;98531.72;;;18.59;100.00
69848;BME280;57143;55.940;37.496;2023-06-10T03:24:35;98389.69;;;17.81;100.00
69848;BME280;57143;55.940;37.496;2023-06-10T03:27:06;98402.72;;;18.91;100.00
69848;BME280;57143;55.940;37.496;2023-06-10T03:29:34;98525.00;;;17.90;100.00
69848;BME280;57143;55.940;37.496;2023-06-10T03:32:01;98416.69;;;19.08;100.00
69848;BME280;57143;55.940;37.496;2023-06-10T03:34:30;98506.41;;;18.48;100.00
69848;BME280;57143;55.940;37.496;2023-06-10T03:36:57;98347.22;;;16.42;100.00
69848;BME280;57143;55.940;37.496;2023-06-10T03:39:25;98354.50;;;17.88;100.00
69848;BME280;57143;55.940;37.496;2023-06-10T03:41:54;98383.31;;;18.04;100.00
69848;BME280;57143;55.940;37.496;2023-06-10T03:44:22;98520.91;;;17.88;100.00
69848;BME280;57143;55.940;37.496;2023-06-10T03:46:49;98379.22;;;16.75;100.00
69848;BME280;57143;55.940;37.496;2023-06-10T03:49:16;98404.44;;;16.96;100.00
69848;BME280;57143;55.940;37.496;2023-06-10T03:51:45;98446.97;;;18.20;100.00
69848;BME280;57143;55.940;37.496;2023-06-10T03:54:12;98545.78;;;18.76;100.00
69848;BME280;57143;55.940;37.496;2023-06-10T03:56:39;98653.34;;;18.78;100.00
69848;BME280;57143;55.940;37.496;2023-06-10T03:59:07;98563.50;;;17.57;100.00
69848;BME280;57143;55.940;37.496;2023-06-10T04:01:34;98557.41;;;18.68;100.00
69848;BME280;57143;55.940;37.496;2023-06-10T04:04:03;98698.16;;;17.74;100.00
69848;BME280;57143;55.940;37.496;2023-06-10T04:06:30;98644.56;;;17.24;100.00
69848;BME280;57143;55.940;37.496;2023-06-10T04:08:59;98639.59;;;17.65;100.00
69848;BME280;57143;55.940;37.496;2023-06-10T04:11:26;98602.75;;;17.47;100.00
69848;BME280;57143;55.940;37.496;2023-06-10T04:13:53;98615.59;;;16.26;100.00
69848;BME280;57143;55.940;37.496;2023-06-10T04:16:20;98691.31;;;17.71;100.00
69848;BME280;57143;55.940;37.496;2023-06-10T04:18:47;98714.09;;;18.24;100.00
69848;BME280;57143;55.940;37.496;2023-06-10T04:21:15;98592.03;;;18.45;100.00
69848;BME280;57143;55.940;37.496;2023-06-10T04:23:42;98658.56;;;18.79;100.00
69848;BME280;57143;55.940;37.496;2023-06-10T04:26:11;98672.66;;;19.10;100.00
69848;BME280;57143;55.940;37.496;2023-06-10T04:28:39;98755.47;;;17.26;100.00
69848;BME280;57143;55.940;37.496;2023-06-10T04:31:06;98697.25;;;18.59;100.00
69848;BME280;57143;55.940;37.496;2023-06-10T04:33:34;98850.84;;;18.07;100.00
69848;BME280;57143;55.940;37.496;2023-06-10T04:36:01;98786.47;;;17.22;100.00
69848;BME280;57143;55.940;37.496;2023-06-10T04:38:28;98793.72;;;17.85;100.00
69848;BME280;57143;55.940;37.496;2023-06-10T04:40:56;98665.69;;;16.11;100.00
69848;BME280;57143;55.940;37.496;2023-06-10T04:43:24;98671.84;;;17.00;100.00
69848;BME280;57143;55.940;37.496;2023-06-10T04:45:54;98771.56;;;16.89;100.00
69848;BME280;57143;55.940;37.496;2023-06-10T04:48:21;98747.56;;;18.21;100.00
69848;BME280;57143;55.940;37.496;2023-06-10T04:50:49;98852.53;;;19.12;100.00
69848;BME280;57143;55.940;37.496;2023-06-10T04:53:17;98803.41;;;19.34;100.00
69848;BME280;57143;55.940;37.496;2023-06-10T04:55:44;98739.94;;;18.18;100.00
69848;BME280;57143;55.940;37.496;2023-06-10T04:58:11;98764.41;;;18.38;100.00
69848;BME280;57143;55.940;37.496;2023-06-10T05:00:40;98881.19;;;20.09;100.00
69848;BME280;57143;55.940;37.496;2023-06-10T05:03:07;99043.03;;;19.84;100.00
69848;BME280;57143;55.940;37.496;2023-06-10T05:05:34;98991.91;;;19.02;100.00
69848;BME280;57143;55.940;37.496;2023-06-10T05:08:01;98961.72;;;18.39;100.00
69848;BME280;57143;55.940;37.496;2023-06-10T05:10:28;98993.06;;;18.28;100.00
69848;BME280;57143;55.940;37.496;2023-06-10T05:12:57;98880.19;;;17.68;100.00
69848;BME280;57143;55.940;37.496;2023-06-10T05:15:24;98808.09;;;17.23;100.00
69848;BME280;57143;55.940;37.496;2023-06-10T05:17:53;98791.22;;;17.89;100.00
69848;BME280;57143;55.940;37.496;2023-06-10T05:20:20;98841.41;;;17.89;100.00
69848;BME280;57143;55.940;37.496;2023-06-10T05:22:47;98891.56;;;17.31;100.00
69848;BME280;57143;55.940;37.496;2023-06-10T05:25:15;98893.34;;;18.48;100.00
69848;BME280;57143;55.940;37.496;2023-06-10T05:27:42;98912.06;;;17.97;100.00
69848;BME280;57143;55.940;37.496;2023-06-10T05:30:10;98916.34;;;18.52;100.00
69848;BME280;57143;55.940;37.496;2023-06-10T05:32:37;98967.72;;;19.56;100.00
69848;BME280;57143;55.940;37.496;2023-06-10T05:35:06;99099.81;;;19.93;100.00
69848;BME280;57143;55.940;37.496;2023-06-10T05:37:34;99004.81;;;19.35;100.00
69848;BME280;57143;55.940;37.496;2023-06-10T05:40:03;99082.19;;;19.76;100.00
69848;BME280;57143;55.940;37.496;2023-06-10T05:42:31;98962.69;;;18.87;100.00
69848;BME280;57143;55.940;37.496;2023-06-10T05:44:58;98790.69;;;17.48;100.00
69848;BME280;57143;55.940;37.496;2023-06-10T05:47:25;98880.22;;;18.69;100.00
69848;BME280;57143;55.940;37.496;2023-06-10T05:49:52;98983.53;;;19.45;100.00
69848;BME280;57143;55.940;37.496;2023-06-10T05:52:21;99151.31;;;20.40;100.00
69848;BME280;57143;55.940;37.496;2023-06-10T05:54:49;99094.50;;;18.38;100.00
69848;BME280;57143;55.940;37.496;2023-06-10T05:57:17;98983.13;;;19.33;100.00
69848;BME280;57143;55.940;37.496;2023-06-10T05:59:44;99193.44;;;19.16;100.00
69848;BME280;57143;55.940;37.496;2023-06-10T06:02:11;99079.59;;;18.60;100.00
69848;BME280;57143;55.940;37.496;2023-06-10T06:04:38;98940.19;;;16.80;100.00
69848;BME280;57143;55.940;37.496;2023-06-10T06:07:05;98911.91;;;17.15;100.00
69848;BME280;57143;55.940;37.496;2023-06-10T06:09:34;98903.28;;;17.52;100.00
69848;BME280;57143;55.940;37.496;2023-06-10T06:12:01;98927.88;;;17.67;100.00
69848;BME280;57143;55.940;37.496;2023-06-10T06:14:31;99060.38;;;18.93;100.00
69848;BME280;57143;55.940;37.496;2023-06-10T06:16:58;98980.75;;;17.72;100.00
69848;BME280;57143;55.940;37.496;2023-06-10T06:19:25;98900.44;;;17.03;100.00
69848;BME280;57143;55.940;37.496;2023-06-10T06:21:53;99081.44;;;19.08;100.00
69848;BME280;57143;55.940;37.496;2023-06-10T06:24:20;99058.44;;;19.32;100.00
69848;BME280;57143;55.940;37.496;2023-06-10T06:26:48;98913.84;;;17.09;100.00
69848;BME280;57143;55.940;37.496;2023-06-10T06:29:16;99110.97;;;18.38;100.00
69848;BME280;57143;55.940;37.496;2023-06-10T06:31:43;99152.44;;;18.91;100.00
69848;BME280;57143;55.940;37.496;2023-06-10T06:34:11;99139.56;;;18.81;100.00
69848;BME280;57143;55.940;37.496;2023-06-10T06:36:38;99048.16;;;18.81;100.00
69848;BME280;57143;55.940;37.496;2023-06-10T06:39:05;99184.25;;;19.69;100.00
69848;BME280;57143;55.940;37.496;2023-06-10T06:41:32;99048.06;;;18.91;100.00
69848;BME280;57143;55.940;37.496;2023-06-10T06:44:01;98994.59;;;18.01;100.00
69848;BME280;57143;55.940;37.496;2023-06-10T06:46:28;99109.94;;;19.17;100.00
69848;BME280;57143;55.940;37.496;2023-06-10T06:48:55;99271.91;;;20.09;100.00
69848;BME280;57143;55.940;37.496;2023-06-10T06:51:23;99371.16;;;20.23;100.00
69848;BME280;57143;55.940;37.496;2023-06-10T06:53:50;99387.75;;;20.46;100.00
69848;BME280;57143;55.940;37.496;2023-06-10T06:56:19;99292.25;;;18.82;100.00
69848;BME280;57143;55.940;37.496;2023-06-10T06:58:47;99159.72;;;17.93;100.00
69848;BME280;57143;55.940;37.496;2023-06-10T07:01:15;99137.28;;;17.46;100.00
69848;BME280;57143;55.940;37.496;2023-06-10T07:03:42;98992.97;;;16.36;100.00
69848;BME280;57143;55.940;37.496;2023-06-10T07:06:10;99126.03;;;16.82;100.00
69848;BME280;57143;55.940;37.496;2023-06-10T07:08:37;99112.91;;;17.54;100.00
69848;BME280;57143;55.940;37.496;2023-06-10T07:11:04;99327.50;;;18.45;100.00
69848;BME280;57143;55.940;37.496;2023-06-10T07:13:31;99414.25;;;18.41;100.00
69848;BME280;57143;55.940;37.496;2023-06-10T07:15:59;99437.47;;;18.99;100.00
69848;BME280;57143;55.940;37.496;2023-06-10T07:18:27;99473.00;;;19.74;100.00
69848;BME280;57143;55.940;37.496;2023-06-10T07:20:54;99479.00;;;18.82;100.00
69848;BME280;57143;55.940;37.496;2023-06-10T07:23:21;99470.72;;;18.12;100.00
69848;BME280;57143;55.940;37.496;2023-06-10T07:25:50;99419.09;;;17.84;100.00
69848;BME280;57143;55.940;37.496;2023-06-10T07:28:17;99414.97;;;17.81;100.00
69848;BME280;57143;55.940;37.496;2023-06-10T07:30:44;99536.69;;;17.75;100.00
69848;BME280;57143;55.940;37.496;2023-06-10T07:33:11;99396.50;;;16.85;100.00
69848;BME280;57143;55.940;37.496;2023-06-10T07:35:40;99291.16;;;16.41;100.00
69848;BME280;57143;55.940;37.496;2023-06-10T07:38:08;99460.69;;;17.09;100.00
69848;BME280;57143;55.940;37.496;2023-06-10T07:40:35;99549.91;;;16.63;100.00
69848;BME280;57143;55.940;37.496;2023-06-10T07:43:03;99499.34;;;17.12;100.00
69848;BME280;57143;55.940;37.496;2023-06-10T07:45:30;99494.19;;;16.79;100.00
69848;BME280;57143;55.940;37.496;2023-06-10T07:47:57;99562.75;;;16.94;100.00
69848;BME280;57143;55.940;37.496;2023-06-10T07:50:24;99608.66;;;16.56;100.00
69848;BME280;57143;55.940;37.496;2023-06-10T07:52:53;99735.75;;;16.91;100.00
69848;BME280;57143;55.940;37.496;2023-06-10T07:55:20;99559.69;;;16.86;100.00
69848;BME280;57143;55.940;37.496;2023-06-10T07:57:47;99648.06;;;17.86;100.00
69848;BME280;57143;55.940;37.496;2023-06-10T08:00:15;99585.19;;;17.28;100.00
69848;BME280;57143;55.940;37.496;2023-06-10T08:02:42;99574.44;;;18.25;100.00
69848;BME280;57143;55.940;37.496;2023-06-10T08:05:09;99643.00;;;19.37;100.00
69848;BME280;57143;55.940;37.496;2023-06-10T08:07:37;99608.84;;;18.53;100.00
69848;BME280;57143;55.940;37.496;2023-06-10T08:10:07;99604.63;;;17.26;100.00
69848;BME280;57143;55.940;37.496;2023-06-10T08:12:34;99577.94;;;18.10;100.00
69848;BME280;57143;55.940;37.496;2023-06-10T08:15:02;99566.75;;;17.60;100.00
69848;BME280;57143;55.940;37.496;2023-06-10T08:17:32;99530.38;;;17.70;100.00
69848;BME280;57143;55.940;37.496;2023-06-10T08:20:00;99506.72;;;17.54;100.00
69848;BME280;57143;55.940;37.496;2023-06-10T08:22:31;99507.63;;;17.27;100.00
69848;BME280;57143;55.940;37.496;2023-06-10T08:24:59;99492.41;;;18.33;100.00
69848;BME280;57143;55.940;37.496;2023-06-10T08:27:28;99523.03;;;17.85;100.00
69848;BME280;57143;55.940;37.496;2023-06-10T08:29:55;99578.88;;;17.69;100.00
69848;BME280;57143;55.940;37.496;2023-06-10T08:32:22;99425.22;;;17.29;100.00
69848;BME280;57143;55.940;37.496;2023-06-10T08:34:49;99455.66;;;16.86;100.00
69848;BME280;57143;55.940;37.496;2023-06-10T08:37:16;99444.34;;;18.01;100.00
69848;BME280;57143;55.940;37.496;2023-06-10T08:39:44;99514.94;;;17.54;100.00
69848;BME280;57143;55.940;37.496;2023-06-10T08:42:19;99379.19;;;16.74;100.00
69848;BME280;57143;55.940;37.496;2023-06-10T08:44:53;99314.97;;;16.08;100.00
69848;BME280;57143;55.940;37.496;2023-06-10T08:47:22;99409.53;;;16.36;100.00
69848;BME280;57143;55.940;37.496;2023-06-10T08:49:51;99393.50;;;15.55;100.00
69848;BME280;57143;55.940;37.496;2023-06-10T08:52:20;99393.25;;;15.56;100.00
69848;BME280;57143;55.940;37.496;2023-06-10T08:54:52;99411.47;;;15.51;100.00
69848;BME280;57143;55.940;37.496;2023-06-10T08:57:21;99390.28;;;15.63;100.00
69848;BME280;57143;55.940;37.496;2023-06-10T08:59:52;99343.66;;;15.43;100.00
69848;BME280;57143;55.940;37.496;2023-06-10T09:02:20;99408.28;;;16.17;100.00
69848;BME280;57143;55.940;37.496;2023-06-10T09:04:48;99381.38;;;16.36;100.00
69848;BME280;57143;55.940;37.496;2023-06-10T09:07:16;99410.91;;;16.34;100.00
69848;BME280;57143;55.940;37.496;2023-06-10T09:09:44;99565.19;;;15.89;100.00
69848;BME280;57143;55.940;37.496;2023-06-10T09:12:13;99598.00;;;15.68;100.00
69848;BME280;57143;55.940;37.496;2023-06-10T09:14:41;99580.44;;;16.29;100.00
69848;BME280;57143;55.940;37.496;2023-06-10T09:17:10;99623.00;;;15.76;100.00
69848;BME280;57143;55.940;37.496;2023-06-10T09:19:38;99648.25;;;16.27;100.00
69848;BME280;57143;55.940;37.496;2023-06-10T09:22:07;99599.34;;;16.57;100.00
69848;BME280;57143;55.940;37.496;2023-06-10T09:24:34;99500.09;;;16.08;100.00
69848;BME280;57143;55.940;37.496;2023-06-10T09:27:03;99445.41;;;15.55;100.00
69848;BME280;57143;55.940;37.496;2023-06-10T09:29:30;99431.88;;;16.23;100.00
69848;BME280;57143;55.940;37.496;2023-06-10T09:31:57;99634.69;;;15.72;100.00
69848;BME280;57143;55.940;37.496;2023-06-10T09:34:26;99621.22;;;16.08;100.00
69848;BME280;57143;55.940;37.496;2023-06-10T09:36:53;99664.59;;;16.22;100.00
69848;BME280;57143;55.940;37.496;2023-06-10T09:39:21;99612.78;;;16.10;100.00
69848;BME280;57143;55.940;37.496;2023-06-10T09:41:48;99548.38;;;15.76;100.00
69848;BME280;57143;55.940;37.496;2023-06-10T09:44:16;99537.31;;;15.66;100.00
69848;BME280;57143;55.940;37.496;2023-06-10T09:46:45;99426.38;;;15.91;100.00
69848;BME280;57143;55.940;37.496;2023-06-10T09:49:12;99490.41;;;16.85;100.00
69848;BME280;57143;55.940;37.496;2023-06-10T09:51:50;99691.59;;;16.40;100.00
69848;BME280;57143;55.940;37.496;2023-06-10T09:54:18;99685.63;;;16.21;100.00
69848;BME280;57143;55.940;37.496;2023-06-10T09:56:47;99689.94;;;15.95;100.00
69848;BME280;57143;55.940;37.496;2023-06-10T09:59:14;99734.47;;;16.51;100.00
69848;BME280;57143;55.940;37.496;2023-06-10T10:01:41;99728.09;;;16.67;100.00
69848;BME280;57143;55.940;37.496;2023-06-10T10:04:09;99699.53;;;15.98;100.00
69848;BME280;57143;55.940;37.496;2023-06-10T10:06:36;99707.53;;;16.21;100.00
69848;BME280;57143;55.940;37.496;2023-06-10T10:09:06;99690.72;;;16.12;100.00
69848;BME280;57143;55.940;37.496;2023-06-10T10:11:33;99676.28;;;16.17;100.00
69848;BME280;57143;55.940;37.496;2023-06-10T10:14:04;99677.78;;;16.46;100.00
69848;BME280;57143;55.940;37.496;2023-06-10T10:16:35;99680.91;;;16.81;100.00
69848;BME280;57143;55.940;37.496;2023-06-10T10:19:07;99781.59;;;17.01;100.00
69848;BME280;57143;55.940;37.496;2023-06-10T10:21:38;99770.91;;;17.26;100.00
69848;BME280;57143;55.940;37.496;2023-06-10T10:24:14;99680.53;;;16.99;100.00
69848;BME280;57143;55.940;37.496;2023-06-10T10:26:43;99734.03;;;17.39;100.00
69848;BME280;57143;55.940;37.496;2023-06-10T10:29:24;99678.72;;;16.35;100.00
69848;BME280;57143;55.940;37.496;2023-06-10T10:31:56;99662.59;;;16.17;100.00
69848;BME280;57143;55.940;37.496;2023-06-10T10:34:30;99721.69;;;16.56;100.00
69848;BME280;57143;55.940;37.496;2023-06-10T10:37:02;99747.06;;;17.26;100.00
69848;BME280;57143;55.940;37.496;2023-06-10T10:39:33;99700.06;;;17.40;100.00
69848;BME280;57143;55.940;37.496;2023-06-10T10:42:01;99650.13;;;16.69;100.00
69848;BME280;57143;55.940;37.496;2023-06-10T10:44:29;99650.09;;;15.99;100.00
69848;BME280;57143;55.940;37.496;2023-06-10T10:47:02;99553.47;;;15.89;100.00
69848;BME280;57143;55.940;37.496;2023-06-10T10:49:31;99623.31;;;16.01;100.00
69848;BME280;57143;55.940;37.496;2023-06-10T10:51:59;99539.19;;;16.08;100.00
69848;BME280;57143;55.940;37.496;2023-06-10T10:54:33;99643.34;;;16.29;100.00
69848;BME280;57143;55.940;37.496;2023-06-10T10:57:13;99572.06;;;16.40;100.00
69848;BME280;57143;55.940;37.496;2023-06-10T10:59:45;99598.38;;;16.68;100.00
69848;BME280;57143;55.940;37.496;2023-06-10T11:02:16;99765.84;;;16.65;100.00
69848;BME280;57143;55.940;37.496;2023-06-10T11:04:47;99810.13;;;16.83;100.00
69848;BME280;57143;55.940;37.496;2023-06-10T11:07:19;99788.16;;;16.57;100.00
69848;BME280;57143;55.940;37.496;2023-06-10T11:10:02;99834.06;;;16.71;100.00
69848;BME280;57143;55.940;37.496;2023-06-10T11:12:51;99782.47;;;16.58;100.00
69848;BME280;57143;55.940;37.496;2023-06-10T11:15:21;99761.44;;;16.85;100.00
69848;BME280;57143;55.940;37.496;2023-06-10T11:18:11;99713.63;;;16.71;100.00
69848;BME280;57143;55.940;37.496;2023-06-10T11:20:59;99804.25;;;16.53;100.00
69848;BME280;57143;55.940;37.496;2023-06-10T11:23:33;99787.41;;;16.83;100.00
69848;BME280;57143;55.940;37.496;2023-06-10T11:26:19;99700.41;;;17.16;100.00
69848;BME280;57143;55.940;37.496;2023-06-10T11:29:17;99604.81;;;17.15;100.00
69848;BME280;57143;55.940;37.496;2023-06-10T11:31:49;99564.78;;;15.97;100.00
69848;BME280;57143;55.940;37.496;2023-06-10T11:34:23;99557.25;;;15.88;100.00
69848;BME280;57143;55.940;37.496;2023-06-10T11:36:53;99502.81;;;15.81;100.00
69848;BME280;57143;55.940;37.496;2023-06-10T11:39:21;99471.81;;;15.97;100.00
69848;BME280;57143;55.940;37.496;2023-06-10T11:41:51;99542.19;;;16.34;100.00
69848;BME280;57143;55.940;37.496;2023-06-10T11:44:19;99559.94;;;16.31;100.00
69848;BME280;57143;55.940;37.496;2023-06-10T11:46:48;99634.00;;;16.46;100.00
69848;BME280;57143;55.940;37.496;2023-06-10T11:49:16;99675.78;;;16.63;100.00
69848;BME280;57143;55.940;37.496;2023-06-10T11:51:43;99658.53;;;16.41;100.00
69848;BME280;57143;55.940;37.496;2023-06-10T11:54:15;99668.28;;;16.32;100.00
69848;BME280;57143;55.940;37.496;2023-06-10T11:56:43;99662.16;;;16.03;100.00
69848;BME280;57143;55.940;37.496;2023-06-10T11:59:11;99676.09;;;16.02;100.00
69848;BME280;57143;55.940;37.496;2023-06-10T12:01:42;99621.19;;;16.52;100.00
69848;BME280;57143;55.940;37.496;2023-06-10T12:04:11;99575.78;;;16.51;100.00
69848;BME280;57143;55.940;37.496;2023-06-10T12:06:40;99579.50;;;16.18;100.00
69848;BME280;57143;55.940;37.496;2023-06-10T12:09:13;99498.91;;;15.77;100.00
69848;BME280;57143;55.940;37.496;2023-06-10T12:11:41;99480.31;;;15.74;100.00
69848;BME280;57143;55.940;37.496;2023-06-10T12:14:09;99512.94;;;15.59;100.00
69848;BME280;57143;55.940;37.496;2023-06-10T12:16:38;99574.56;;;15.93;100.00
69848;BME280;57143;55.940;37.496;2023-06-10T12:19:05;99718.00;;;16.07;100.00
69848;BME280;57143;55.940;37.496;2023-06-10T12:21:36;99763.63;;;15.85;100.00
69848;BME280;57143;55.940;37.496;2023-06-10T12:24:06;99701.00;;;15.34;100.00
69848;BME280;57143;55.940;37.496;2023-06-10T12:26:35;99787.28;;;15.96;100.00
69848;BME280;57143;55.940;37.496;2023-06-10T12:29:18;99743.25;;;16.14;100.00
69848;BME280;57143;55.940;37.496;2023-06-10T12:31:58;99777.47;;;16.17;100.00
69848;BME280;57143;55.940;37.496;2023-06-10T12:34:34;99746.91;;;16.20;100.00
69848;BME280;57143;55.940;37.496;2023-06-10T12:37:05;99737.03;;;16.19;100.00
69848;BME280;57143;55.940;37.496;2023-06-10T12:39:33;99515.28;;;15.51;100.00
69848;BME280;57143;55.940;37.496;2023-06-10T12:42:01;99272.63;;;15.16;100.00
69848;BME280;57143;55.940;37.496;2023-06-10T12:44:32;99236.28;;;15.16;100.00
69848;BME280;57143;55.940;37.496;2023-06-10T12:47:07;99300.00;;;15.26;100.00
69848;BME280;57143;55.940;37.496;2023-06-10T12:49:35;99219.47;;;15.24;100.00